Haukur — OZ2119 — position and weather

sailwx.info

Track history (hours):
 
Tides and Currents Weather Stations Pressure Air Temp Water Temp Dewpoint Dewpoint Depression Visibility Wind Speed Wind Dir Waves Ship Positions

Haukur

Last reported at 2015-Mar-03 06:24 UTC. Time now 2015-Mar-04 18:51 UTC.
Position N 66°46' E 013°16'.

Length 75 m; draft 4.3 m.

Type: Cargo ship. MMSI: 231812000.

Date/timePositionNaut miles runAvg speedWind from/ knotsBaromVisibWave heightAir tempDewpointWater temp
2015-Mar-03 06:24N 66°46' E 013°16'1111.1
2015-Mar-03 05:22N 66°36' E 013°04'810.2
2015-Mar-03 04:33N 66°28' E 012°60'1010.3
2015-Mar-03 03:33N 66°19' E 012°47'8 8.4
2015-Mar-03 02:33N 66°15' E 012°28'7 7.3
2015-Mar-03 01:33N 66°17' E 012°10'  
2015-Feb-25 22:15N 64°08' W 022°52'4 5.8
2015-Feb-25 21:33N 64°09' W 022°44'7 7.0
2015-Feb-25 20:32N 64°04' W 022°34'5 3.4
2015-Feb-25 19:12N 63°59' W 022°32'0 0.0
2015-Feb-25 18:24N 63°59' W 022°32'0 0.0
2015-Feb-25 16:21N 63°59' W 022°32'0 0.0
2015-Feb-25 13:15N 63°59' W 022°32'0 0.0
2015-Feb-25 12:33N 63°59' W 022°32'0 0.0
2015-Feb-25 09:27N 63°59' W 022°32'0 0.0
2015-Feb-25 06:29N 63°59' W 022°32'2 2.6
2015-Feb-25 05:33N 64°01' W 022°28'1111.2
2015-Feb-25 04:33N 64°08' W 022°09'8 8.2
2015-Feb-25 03:33N 64°09' W 021°50'0 0.3
2015-Feb-25 02:29N 64°08' W 021°50'0 0.0
2015-Feb-25 01:29N 64°08' W 021°50'0 0.0
2015-Feb-25 00:32N 64°08' W 021°50'0 0.0
2015-Feb-24 23:32N 64°08' W 021°50'0 0.0
2015-Feb-24 22:32N 64°08' W 021°50'0 0.0
2015-Feb-24 21:32N 64°08' W 021°50'0 0.0
2015-Feb-24 20:32N 64°08' W 021°50'0 0.0
2015-Feb-24 19:32N 64°08' W 021°50'0 0.0
2015-Feb-24 18:32N 64°08' W 021°50'0 0.0
2015-Feb-24 17:31N 64°08' W 021°50'0 0.0
2015-Feb-24 16:31N 64°08' W 021°50'0 0.0
2015-Feb-24 15:31N 64°08' W 021°50'0 0.0
2015-Feb-24 14:31N 64°08' W 021°50'0 0.0
2015-Feb-24 13:31N 64°08' W 021°50'0 0.0
2015-Feb-24 12:31N 64°08' W 021°50'0 0.0
2015-Feb-24 11:28N 64°08' W 021°50'0 0.0
2015-Feb-24 10:31N 64°08' W 021°50'0 0.0
2015-Feb-24 09:31N 64°08' W 021°50'0 0.0
2015-Feb-24 08:31N 64°08' W 021°50'0 0.0
2015-Feb-24 07:31N 64°08' W 021°50'0 0.0
2015-Feb-24 06:31N 64°08' W 021°50'0 0.0
2015-Feb-24 05:31N 64°08' W 021°50'0 0.0
2015-Feb-24 04:31N 64°08' W 021°50'0 0.0
2015-Feb-24 03:31N 64°08' W 021°50'0 0.0
2015-Feb-24 02:31N 64°08' W 021°50'0 0.0
2015-Feb-24 01:31N 64°08' W 021°50'0 0.0
2015-Feb-24 00:31N 64°08' W 021°50'0 0.0
2015-Feb-23 23:31N 64°08' W 021°50'0 0.0
2015-Feb-23 22:31N 64°08' W 021°50'0 0.0
2015-Feb-23 21:31N 64°08' W 021°50'0 0.0
2015-Feb-23 20:31N 64°08' W 021°50'0 0.0
2015-Feb-23 19:28N 64°08' W 021°50'0 0.0
2015-Feb-23 18:31N 64°08' W 021°50'0 0.0
2015-Feb-23 17:31N 64°08' W 021°50'0 0.0
2015-Feb-23 16:31N 64°08' W 021°50'0 0.0
2015-Feb-23 15:31N 64°08' W 021°50'0 0.0
2015-Feb-23 14:31N 64°08' W 021°50'0 0.0
2015-Feb-23 12:33N 64°08' W 021°50'0 0.0
2015-Feb-23 11:33N 64°08' W 021°50'0 0.0
2015-Feb-23 10:33N 64°08' W 021°50'0 0.0
2015-Feb-23 09:33N 64°08' W 021°50'0 0.0
2015-Feb-23 08:33N 64°08' W 021°50'0 0.0
2015-Feb-23 07:33N 64°08' W 021°50'0 0.0
2015-Feb-23 06:33N 64°08' W 021°50'0 0.0
2015-Feb-23 05:33N 64°08' W 021°50'0 0.0
2015-Feb-23 04:33N 64°08' W 021°50'0 0.0
2015-Feb-23 03:33N 64°08' W 021°50'0 0.0
2015-Feb-23 02:33N 64°08' W 021°50'0 0.0
2015-Feb-23 01:33N 64°08' W 021°50'0 0.0
2015-Feb-23 00:33N 64°08' W 021°50'0 0.0
2015-Feb-22 23:33N 64°08' W 021°50'0 0.0
2015-Feb-22 22:33N 64°08' W 021°50'0 0.0
2015-Feb-22 21:33N 64°08' W 021°50'0 0.0
2015-Feb-22 20:33N 64°08' W 021°50'0 0.0
2015-Feb-22 19:33N 64°08' W 021°50'0 0.0
2015-Feb-22 18:33N 64°08' W 021°50'0 0.0
2015-Feb-22 17:33N 64°08' W 021°50'0 0.0
2015-Feb-22 16:33N 64°08' W 021°50'0 0.0
2015-Feb-22 15:33N 64°08' W 021°50'0 0.0
2015-Feb-22 14:33N 64°08' W 021°50'0 0.0
2015-Feb-22 13:33N 64°08' W 021°50'0 0.0
2015-Feb-22 12:30N 64°08' W 021°50'0 0.0
2015-Feb-22 11:33N 64°08' W 021°50'0 0.0
2015-Feb-22 10:33N 64°08' W 021°50'0 0.0
2015-Feb-22 09:33N 64°08' W 021°50'0 0.0
2015-Feb-22 08:33N 64°08' W 021°50'0 0.0
2015-Feb-22 07:33N 64°08' W 021°50'0 0.0
2015-Feb-22 06:33N 64°08' W 021°50'0 0.0
2015-Feb-22 05:33N 64°08' W 021°50'0 0.0
2015-Feb-22 04:33N 64°08' W 021°50'1 0.7
2015-Feb-22 03:33N 64°09' W 021°50'7 6.5
2015-Feb-22 02:34N 64°11' W 022°05'8 8.3
2015-Feb-22 01:33N 64°09' W 022°24'8 7.9
2015-Feb-22 00:33N 64°08' W 022°41'7 7.2
2015-Feb-21 23:31N 64°03' W 022°55'25 8.6
2015-Feb-21 20:33N 63°44' W 022°17'1410.6
2015-Feb-21 19:11N 63°40' W 021°46'910.4
2015-Feb-21 18:19N 63°38' W 021°26'  
Track history (hours):
 
Tides and Currents Weather Stations Pressure Air Temp Water Temp Dewpoint Dewpoint Depression Visibility Wind Speed Wind Dir Waves Ship Positions

Haukur

Last reported at 2015-Mar-03 06:24 UTC. Time now 2015-Mar-04 18:51 UTC.
Position N 66°46' E 013°16'.

Length 75 m; draft 4.3 m.

Type: Cargo ship. MMSI: 231812000.

Date/timePositionNaut miles runAvg speedWind from/ knotsBaromVisibWave heightAir tempDewpointWater temp
2015-Mar-03 06:24N 66°46' E 013°16'1111.1
2015-Mar-03 05:22N 66°36' E 013°04'810.2
2015-Mar-03 04:33N 66°28' E 012°60'1010.3
2015-Mar-03 03:33N 66°19' E 012°47'8 8.4
2015-Mar-03 02:33N 66°15' E 012°28'7 7.3
2015-Mar-03 01:33N 66°17' E 012°10'  
2015-Feb-25 22:15N 64°08' W 022°52'4 5.8
2015-Feb-25 21:33N 64°09' W 022°44'7 7.0
2015-Feb-25 20:32N 64°04' W 022°34'5 3.4
2015-Feb-25 19:12N 63°59' W 022°32'0 0.0
2015-Feb-25 18:24N 63°59' W 022°32'0 0.0
2015-Feb-25 16:21N 63°59' W 022°32'0 0.0
2015-Feb-25 13:15N 63°59' W 022°32'0 0.0
2015-Feb-25 12:33N 63°59' W 022°32'0 0.0
2015-Feb-25 09:27N 63°59' W 022°32'0 0.0
2015-Feb-25 06:29N 63°59' W 022°32'2 2.6
2015-Feb-25 05:33N 64°01' W 022°28'1111.2
2015-Feb-25 04:33N 64°08' W 022°09'8 8.2
2015-Feb-25 03:33N 64°09' W 021°50'0 0.3
2015-Feb-25 02:29N 64°08' W 021°50'0 0.0
2015-Feb-25 01:29N 64°08' W 021°50'0 0.0
2015-Feb-25 00:32N 64°08' W 021°50'0 0.0
2015-Feb-24 23:32N 64°08' W 021°50'0 0.0
2015-Feb-24 22:32N 64°08' W 021°50'0 0.0
2015-Feb-24 21:32N 64°08' W 021°50'0 0.0
2015-Feb-24 20:32N 64°08' W 021°50'0 0.0
2015-Feb-24 19:32N 64°08' W 021°50'0 0.0
2015-Feb-24 18:32N 64°08' W 021°50'0 0.0
2015-Feb-24 17:31N 64°08' W 021°50'0 0.0
2015-Feb-24 16:31N 64°08' W 021°50'0 0.0
2015-Feb-24 15:31N 64°08' W 021°50'0 0.0
2015-Feb-24 14:31N 64°08' W 021°50'0 0.0
2015-Feb-24 13:31N 64°08' W 021°50'0 0.0
2015-Feb-24 12:31N 64°08' W 021°50'0 0.0
2015-Feb-24 11:28N 64°08' W 021°50'0 0.0
2015-Feb-24 10:31N 64°08' W 021°50'0 0.0
2015-Feb-24 09:31N 64°08' W 021°50'0 0.0
2015-Feb-24 08:31N 64°08' W 021°50'0 0.0
2015-Feb-24 07:31N 64°08' W 021°50'0 0.0
2015-Feb-24 06:31N 64°08' W 021°50'0 0.0
2015-Feb-24 05:31N 64°08' W 021°50'0 0.0
2015-Feb-24 04:31N 64°08' W 021°50'0 0.0
2015-Feb-24 03:31N 64°08' W 021°50'0 0.0
2015-Feb-24 02:31N 64°08' W 021°50'0 0.0
2015-Feb-24 01:31N 64°08' W 021°50'0 0.0
2015-Feb-24 00:31N 64°08' W 021°50'0 0.0
2015-Feb-23 23:31N 64°08' W 021°50'0 0.0
2015-Feb-23 22:31N 64°08' W 021°50'0 0.0
2015-Feb-23 21:31N 64°08' W 021°50'0 0.0
2015-Feb-23 20:31N 64°08' W 021°50'0 0.0
2015-Feb-23 19:28N 64°08' W 021°50'0 0.0
2015-Feb-23 18:31N 64°08' W 021°50'0 0.0
2015-Feb-23 17:31N 64°08' W 021°50'0 0.0
2015-Feb-23 16:31N 64°08' W 021°50'0 0.0
2015-Feb-23 15:31N 64°08' W 021°50'0 0.0
2015-Feb-23 14:31N 64°08' W 021°50'0 0.0
2015-Feb-23 12:33N 64°08' W 021°50'0 0.0
2015-Feb-23 11:33N 64°08' W 021°50'0 0.0
2015-Feb-23 10:33N 64°08' W 021°50'0 0.0
2015-Feb-23 09:33N 64°08' W 021°50'0 0.0
2015-Feb-23 08:33N 64°08' W 021°50'0 0.0
2015-Feb-23 07:33N 64°08' W 021°50'0 0.0
2015-Feb-23 06:33N 64°08' W 021°50'0 0.0
2015-Feb-23 05:33N 64°08' W 021°50'0 0.0
2015-Feb-23 04:33N 64°08' W 021°50'0 0.0
2015-Feb-23 03:33N 64°08' W 021°50'0 0.0
2015-Feb-23 02:33N 64°08' W 021°50'0 0.0
2015-Feb-23 01:33N 64°08' W 021°50'0 0.0
2015-Feb-23 00:33N 64°08' W 021°50'0 0.0
2015-Feb-22 23:33N 64°08' W 021°50'0 0.0
2015-Feb-22 22:33N 64°08' W 021°50'0 0.0
2015-Feb-22 21:33N 64°08' W 021°50'0 0.0
2015-Feb-22 20:33N 64°08' W 021°50'0 0.0
2015-Feb-22 19:33N 64°08' W 021°50'0 0.0
2015-Feb-22 18:33N 64°08' W 021°50'0 0.0
2015-Feb-22 17:33N 64°08' W 021°50'0 0.0
2015-Feb-22 16:33N 64°08' W 021°50'0 0.0
2015-Feb-22 15:33N 64°08' W 021°50'0 0.0
2015-Feb-22 14:33N 64°08' W 021°50'0 0.0
2015-Feb-22 13:33N 64°08' W 021°50'0 0.0
2015-Feb-22 12:30N 64°08' W 021°50'0 0.0
2015-Feb-22 11:33N 64°08' W 021°50'0 0.0
2015-Feb-22 10:33N 64°08' W 021°50'0 0.0
2015-Feb-22 09:33N 64°08' W 021°50'0 0.0
2015-Feb-22 08:33N 64°08' W 021°50'0 0.0
2015-Feb-22 07:33N 64°08' W 021°50'0 0.0
2015-Feb-22 06:33N 64°08' W 021°50'0 0.0
2015-Feb-22 05:33N 64°08' W 021°50'0 0.0
2015-Feb-22 04:33N 64°08' W 021°50'1 0.7
2015-Feb-22 03:33N 64°09' W 021°50'7 6.5
2015-Feb-22 02:34N 64°11' W 022°05'8 8.3
2015-Feb-22 01:33N 64°09' W 022°24'8 7.9
2015-Feb-22 00:33N 64°08' W 022°41'7 7.2
2015-Feb-21 23:31N 64°03' W 022°55'25 8.6
2015-Feb-21 20:33N 63°44' W 022°17'1410.6
2015-Feb-21 19:11N 63°40' W 021°46'910.4
2015-Feb-21 18:19N 63°38' W 021°26'  

Dump ship's entire track history